• Join FlightAware (Why Join?)
  • Login
  • US Flag 
07:43PM EDT


 

Airport Tracker/Info


-or-


 

Live Flight TrackerFlight Track Log ✈ DAL3794 ✈ 01-Jul-2013 ✈ KCWA - KDTW

Flight Track Log - Related Links

Times and Time Zones

All times are in EDT time to prevent confusion due to time zone crossing. See the DAL3794 flight status page for this flight to view local times or setup timezone preferences in your user account.

Time Position Orientation Groundspeed Altitude Reporting Facility
EDT Latitude Longitude Course Direction KTS MPH feet Rate Location/Type
07:48AM 44.7847 -89.6306 90° East 117 135 2,700  Level Chicago Center
07:49AM 44.7742 -89.5567 101° East 187 215 4,600 2,100 Climbing Chicago Center
07:50AM 44.7631 -89.4592 99° East 234 269 7,100 2,580 Climbing Chicago Center
07:51AM 44.6911 -89.1525 107° East  Level FlightAware Approximate
07:51AM 44.7458 -89.3575 103° East 260 299 10,000  Level Chicago Center
07:52AM 44.6833 -89.0221 90° East  Level FlightAware Approximate
07:52AM 44.7283 -89.2442 102° East 288 331 11,500  Level Chicago Center
07:53AM 44.7078 -89.1119 102° East 338 389 13,100 1,740 Climbing Chicago Center
07:54AM 44.6867 -88.9767 102° East 350 403 15,100 1,920 Climbing Chicago Center
07:55AM 44.6592 -88.8167 104° East 357 411 17,300 1,740 Climbing Minneapolis Center
07:56AM 44.6361 -88.6783 103° East 362 417 18,900 1,560 Climbing Minneapolis Center
07:57AM 44.6131 -88.5392 103° East 364 419 20,500 1,440 Climbing Minneapolis Center
07:58AM 44.5889 -88.3975 103° East 372 428 21,900 1,260 Climbing Minneapolis Center
07:59AM 44.5650 -88.2531 103° East 377 434 23,100 1,080 Climbing Minneapolis Center
08:00AM 44.5156 -88.1194 117° Southeast 386 444 24,200 1,020 Climbing Minneapolis Center
08:01AM 44.4394 -87.9694 125° Southeast 400 460 25,200 900 Climbing Minneapolis Center
08:02AM 44.3728 -87.8400 126° Southeast 406 467 26,100 840 Climbing Minneapolis Center
08:03AM 44.3053 -87.7094 126° Southeast 410 472 27,000 420 Climbing Minneapolis Center
08:04AM 44.2358 -87.5758 126° Southeast 421 484 27,000  Level Minneapolis Center
08:05AM 44.1622 -87.4347 126° Southeast 440 506 27,000  Level Minneapolis Center
08:06AM 44.0869 -87.2919 126° Southeast 451 519 27,000  Level Minneapolis Center
08:07AM 44.0106 -87.1481 126° Southeast 449 517 27,000  Level Minneapolis Center
08:08AM 43.9378 -87.0094 126° Southeast 446 513 27,000  Level Minneapolis Center
08:09AM 43.8644 -86.8719 126° Southeast 445 512 27,000  Level Minneapolis Center
08:10AM 43.7961 -86.7317 124° Southeast 442 509 27,000  Level Minneapolis Center
08:11AM 43.7436 -86.5778 115° Southeast 441 507 27,000  Level Minneapolis Center
08:12AM 43.6886 -86.4253 116° Southeast 442 509 27,000  Level Minneapolis Center
08:14AM 43.6336 -86.2728 116° Southeast 443 510 27,000  Level Minneapolis Center
08:15AM 43.5794 -86.1192 116° Southeast 444 511 27,000  Level Minneapolis Center
08:16AM 43.5136 -85.9383 117° Southeast 442 509 27,000 -420 Level Chicago Center
08:17AM 43.4564 -85.7844 117° Southeast 448 516 26,100 -1,020 Descending Chicago Center
08:18AM 43.3994 -85.6311 117° Southeast 449 517 25,000 -1,020 Descending Chicago Center
08:19AM 43.3428 -85.4781 117° Southeast 447 514 24,000 -1,020 Descending Chicago Center
08:20AM 43.2864 -85.3272 117° Southeast 444 511 23,000 -540 Descending Chicago Center
08:21AM 43.2400 -85.1733 112° Southeast 433 498 23,000  Level Chicago Center
08:22AM 43.2044 -84.9775 104° East 440 506 23,000  Level Chicago Center
08:23AM 43.1739 -84.8136 104° East 443 510 23,000  Level Chicago Center
08:24AM 43.1433 -84.6503 104° East 444 511 23,000  Level Chicago Center
08:25AM 43.1125 -84.4872 104° East 443 510 23,000 -840 Level Chicago Center
08:26AM 43.0825 -84.3292 105° East 433 498 21,400 -1,860 Descending Chicago Center
08:27AM 43.0528 -84.1767 105° East 421 484 19,200 -2,040 Descending Chicago Center
08:28AM 43.0256 -84.0297 104° East 404 465 17,200 -2,400 Descending Chicago Center
08:29AM 42.9886 -83.8700 107° East 389 448 14,600 -2,220 Descending Cleveland Center
08:30AM 42.8728 -83.7619 146° Southeast 350 403 12,100 -1,080 Descending Cleveland Center
08:31AM 42.7828 -83.7036 155° Southeast 355 409 12,000  Descending Cleveland Center
08:32AM 42.7047 -83.6603 158° South 367 422 12,100  Climbing Cleveland Center
08:33AM 42.6081 -83.6019 156° South 369 425 12,100 -60 Level Cleveland Center
08:34AM 42.5136 -83.5467 157° South 369 425 12,000 -600 Descending Cleveland Center
08:35AM 42.4358 -83.4981 155° Southeast 307 353 11,000 -480 Descending Cleveland Center
08:36AM 42.3489 -83.4742 169° South 297 342 11,000 -300 Level Cleveland Center
08:37AM 42.2764 -83.4483 165° South 286 329 10,400 -1,320 Descending Cleveland Center
08:38AM 42.2169 -83.4933 209° Southwest 267 307 8,400 -1,860 Descending Cleveland Center
08:40AM 42.1508 -83.5519 213° Southwest 249 287 6,500 -1,680 Descending Cleveland Center
08:40AM 42.1028 -83.5611 188° South 234 269 5,100 -1,500 Descending Cleveland Center
08:41AM 42.0858 -83.4875 107° East 181 208 3,700 -1,320 Descending Cleveland Center